Time;durP1;ratioP1;P1;durP2;ratioP2;P2;SDS_P1;SDS_P2;PMS_P1;PMS_P2;Temp;Humidity;BMP_temperature;BMP_pressure;BME280_temperature;BME280_humidity;BME280_pressure;Samples;Min_cycle;Max_cycle;Signal;HPM_P1;HPM_P2
2023/07/16 00:00:13;;;;;;;11.35;6.20;;;27.70;99.90;;;;;;1800772;79;21096;-79
2023/07/16 00:02:45;;;;;;;11.05;7.33;;;27.70;99.90;;;;;;1819293;78;21110;-80
2023/07/16 00:05:20;;;;;;;9.75;6.25;;;27.70;99.90;;;;;;1798519;78;21240;-80
2023/07/16 00:07:53;;;;;;;13.55;6.92;;;27.60;99.90;;;;;;1795764;79;21104;-82
2023/07/16 00:10:27;;;;;;;19.25;11.50;;;27.60;99.90;;;;;;1785648;79;21130;-80
2023/07/16 00:13:00;;;;;;;10.43;6.50;;;27.70;99.90;;;;;;1830502;77;21114;-80
2023/07/16 00:15:33;;;;;;;11.75;6.33;;;27.70;99.90;;;;;;1813783;77;21200;-79
2023/07/16 00:18:08;;;;;;;13.18;6.75;;;27.70;99.90;;;;;;1820144;77;21170;-77
2023/07/16 00:20:41;;;;;;;12.25;6.60;;;27.70;99.90;;;;;;1821413;77;21160;-78
2023/07/16 00:23:15;;;;;;;12.85;6.33;;;27.70;99.90;;;;;;1788635;79;21091;-77
2023/07/16 00:25:49;;;;;;;8.60;5.47;;;27.70;99.90;;;;;;1797990;79;21222;-78
2023/07/16 00:28:24;;;;;;;9.95;5.33;;;27.70;99.90;;;;;;1794168;79;21154;-77
2023/07/16 00:31:14;;;;;;;10.53;4.87;;;27.70;99.90;;;;;;1796256;79;21104;-79
2023/07/16 00:33:50;;;;;;;9.10;4.70;;;27.80;99.90;;;;;;1819417;78;21178;-80
2023/07/16 00:36:26;;;;;;;9.88;4.90;;;27.80;99.90;;;;;;1796650;78;21142;-82
2023/07/16 00:38:58;;;;;;;8.18;4.65;;;27.80;99.90;;;;;;1808642;78;21150;-80
2023/07/16 00:41:31;;;;;;;9.60;4.78;;;27.80;99.90;;;;;;1785759;79;21191;-81
2023/07/16 00:44:07;;;;;;;7.85;4.45;;;27.80;99.90;;;;;;1812269;78;21168;-80
2023/07/16 00:46:41;;;;;;;9.78;4.87;;;27.70;99.90;;;;;;1799548;78;21260;-79
2023/07/16 00:49:14;;;;;;;9.95;4.75;;;27.70;99.90;;;;;;1809947;78;21566;-78
2023/07/16 00:51:46;;;;;;;9.40;4.85;;;27.70;99.90;;;;;;1812145;78;21067;-78
2023/07/16 00:54:17;;;;;;;9.15;5.20;;;27.80;99.90;;;;;;1814846;78;21076;-78
2023/07/16 00:56:50;;;;;;;8.25;4.85;;;27.70;99.90;;;;;;1810043;78;21133;-78
2023/07/16 00:59:23;;;;;;;12.85;5.40;;;27.70;99.90;;;;;;1816098;78;21087;-80
2023/07/16 01:01:55;;;;;;;8.03;4.50;;;27.80;99.90;;;;;;1804717;78;21140;-80
2023/07/16 01:04:32;;;;;;;8.08;4.75;;;27.80;99.90;;;;;;1823802;78;21138;-81
2023/07/16 01:07:07;;;;;;;8.43;4.08;;;27.80;99.90;;;;;;1801018;78;21480;-81
2023/07/16 01:09:43;;;;;;;8.80;4.70;;;27.80;99.90;;;;;;1799269;78;21123;-81
2023/07/16 01:12:17;;;;;;;9.53;5.10;;;27.80;99.90;;;;;;1803942;78;21092;-81
2023/07/16 01:14:50;;;;;;;10.30;5.08;;;27.90;99.90;;;;;;1788077;79;21091;-79
2023/07/16 01:17:23;;;;;;;9.40;4.53;;;27.90;99.90;;;;;;1804999;78;21703;-78
2023/07/16 01:19:58;;;;;;;14.87;7.83;;;27.90;99.90;;;;;;1802930;78;21179;-80
2023/07/16 01:23:22;;;;;;;10.72;5.35;;;27.80;99.90;;;;;;1792774;78;21117;-79
2023/07/16 01:26:02;;;;;;;13.18;5.50;;;27.90;99.90;;;;;;1814250;77;21192;-76
2023/07/16 01:28:36;;;;;;;25.50;7.42;;;28.00;99.90;;;;;;1807306;77;21306;-77
2023/07/16 01:31:12;;;;;;;19.12;6.28;;;28.10;99.90;;;;;;1793067;78;21112;-78
2023/07/16 01:33:56;;;;;;;13.95;5.30;;;28.00;99.90;;;;;;1791920;78;21139;-75
2023/07/16 01:36:30;;;;;;;14.50;6.03;;;28.00;99.90;;;;;;1824514;77;21178;-76
2023/07/16 01:39:03;;;;;;;9.20;4.83;;;28.10;99.90;;;;;;1825852;77;21158;-75
2023/07/16 01:41:36;;;;;;;26.12;6.37;;;28.20;99.90;;;;;;1799278;78;21080;-76
2023/07/16 01:44:07;;;;;;;18.23;5.97;;;28.20;99.90;;;;;;1827974;76;21534;-77
2023/07/16 01:46:41;;;;;;;16.52;5.65;;;28.20;99.90;;;;;;1792002;79;21198;-75
2023/07/16 01:49:13;;;;;;;13.15;5.65;;;28.20;99.90;;;;;;1817715;77;21090;-76
2023/07/16 01:51:45;;;;;;;12.10;6.10;;;28.20;99.90;;;;;;1832762;77;21090;-77
2023/07/16 01:54:19;;;;;;;13.62;5.42;;;28.20;99.90;;;;;;1794989;78;21086;-77
2023/07/16 01:57:09;;;;;;;16.30;5.20;;;28.20;99.90;;;;;;1792344;78;21155;-76
2023/07/16 01:59:42;;;;;;;14.63;5.42;;;28.10;99.90;;;;;;1820486;77;21628;-76
2023/07/16 02:02:15;;;;;;;27.42;6.22;;;28.20;99.90;;;;;;1816732;78;21154;-75
2023/07/16 02:04:47;;;;;;;25.30;6.83;;;28.20;99.90;;;;;;1809334;79;21648;-78
2023/07/16 02:07:20;;;;;;;17.52;5.22;;;28.30;99.90;;;;;;1817864;78;21264;-78
2023/07/16 02:09:51;;;;;;;16.67;5.83;;;28.30;99.90;;;;;;1814990;79;21207;-76
2023/07/16 02:12:27;;;;;;;15.72;6.08;;;28.40;99.90;;;;;;1794644;78;21100;-76
2023/07/16 02:15:00;;;;;;;14.05;5.58;;;28.40;99.90;;;;;;1800319;78;21709;-76
2023/07/16 02:17:34;;;;;;;10.15;5.53;;;28.50;99.90;;;;;;1797494;78;21570;-76
2023/07/16 02:20:08;;;;;;;18.48;5.12;;;28.60;99.90;;;;;;1799277;78;21162;-77
2023/07/16 02:22:43;;;;;;;10.58;4.95;;;28.60;99.90;;;;;;1812470;78;21184;-76
2023/07/16 02:25:17;;;;;;;11.05;5.10;;;28.60;99.90;;;;;;1814770;78;21106;-75
2023/07/16 02:27:50;;;;;;;10.03;5.72;;;28.70;99.90;;;;;;1825562;78;21127;-76
2023/07/16 02:30:21;;;;;;;9.33;4.95;;;28.80;99.90;;;;;;1805581;78;21613;-77
2023/07/16 02:32:56;;;;;;;10.82;5.20;;;28.80;99.90;;;;;;1829732;77;21594;-77
2023/07/16 02:35:29;;;;;;;15.32;4.78;;;28.90;99.90;;;;;;1796767;78;21459;-76
2023/07/16 02:38:03;;;;;;;9.05;4.25;;;29.00;99.90;;;;;;1798288;78;21603;-77
2023/07/16 02:40:35;;;;;;;8.80;4.03;;;29.00;99.90;;;;;;1831462;77;21444;-76
2023/07/16 02:43:08;;;;;;;9.65;5.25;;;29.10;99.90;;;;;;1832544;77;21106;-76
2023/07/16 02:45:41;;;;;;;11.28;5.40;;;29.20;99.90;;;;;;1805776;78;21128;-75
2023/07/16 02:48:14;;;;;;;15.90;5.25;;;29.30;99.90;;;;;;1844062;77;21608;-76
2023/07/16 02:50:46;;;;;;;10.40;4.53;;;29.40;99.90;;;;;;1795497;80;21216;-78
2023/07/16 02:53:19;;;;;;;7.28;4.22;;;29.50;99.90;;;;;;1827636;77;21525;-77
2023/07/16 02:55:52;;;;;;;8.20;3.83;;;29.60;99.90;;;;;;1786929;78;21161;-77
2023/07/16 02:58:33;;;;;;;9.15;4.10;;;29.70;99.90;;;;;;1833561;77;21131;-77
2023/07/16 03:01:23;;;;;;;7.78;3.65;;;29.70;99.90;;;;;;1839576;77;21647;-76
2023/07/16 03:03:57;;;;;;;13.38;4.87;;;29.80;99.90;;;;;;1846633;77;21514;-76
2023/07/16 03:06:39;;;;;;;20.15;5.85;;;29.90;99.90;;;;;;1807425;78;21185;-76
2023/07/16 03:09:14;;;;;;;;;;;30.00;99.90;;;;;;1852487;77;21241;-75
2023/07/16 03:11:47;;;;;;;7.72;3.05;;;30.10;99.90;;;;;;1834547;77;20121;-76
2023/07/16 03:14:21;;;;;;;7.72;3.47;;;30.20;99.80;;;;;;1837114;77;21215;-75
2023/07/16 03:16:56;;;;;;;8.00;3.75;;;30.30;99.90;;;;;;1822804;77;21068;-77
2023/07/16 03:19:31;;;;;;;9.65;4.10;;;30.30;99.90;;;;;;1835099;77;21150;-76
2023/07/16 03:22:03;;;;;;;7.22;3.75;;;30.40;99.90;;;;;;1830696;77;21113;-75
2023/07/16 03:24:43;;;;;;;14.45;4.62;;;30.40;99.90;;;;;;1825282;77;21131;-77
2023/07/16 03:27:16;;;;;;;11.70;4.10;;;30.40;99.90;;;;;;1810329;78;21139;-76
2023/07/16 03:29:54;;;;;;;6.47;3.20;;;30.40;99.80;;;;;;1809272;78;21167;-77
2023/07/16 03:32:27;;;;;;;10.15;3.85;;;30.50;99.90;;;;;;1814790;78;21182;-77
2023/07/16 03:35:02;;;;;;;8.53;4.00;;;30.50;99.50;;;;;;1782780;79;21692;-77
2023/07/16 03:37:35;;;;;;;8.93;3.72;;;30.60;99.00;;;;;;1805625;78;21531;-76
2023/07/16 03:40:18;;;;;;;10.23;3.77;;;30.70;99.60;;;;;;1787101;79;21288;-76
2023/07/16 03:42:51;;;;;;;16.55;4.95;;;30.80;99.30;;;;;;1824719;77;21110;-76
2023/07/16 03:45:33;;;;;;;8.63;3.85;;;30.80;98.50;;;;;;1821356;78;21582;-78
2023/07/16 03:48:06;;;;;;;7.12;3.27;;;30.80;98.90;;;;;;1830559;77;21507;-77
2023/07/16 03:50:41;;;;;;;5.50;3.08;;;30.80;99.10;;;;;;1830015;78;21130;-77
2023/07/16 03:53:13;;;;;;;7.97;3.60;;;30.80;99.50;;;;;;1788553;79;21675;-77
2023/07/16 03:55:47;;;;;;;18.98;4.92;;;30.80;99.30;;;;;;1782286;78;21135;-78
2023/07/16 03:58:20;;;;;;;11.93;4.45;;;30.80;99.00;;;;;;1804988;79;21159;-76
2023/07/16 04:00:53;;;;;;;13.03;4.37;;;30.80;99.00;;;;;;1819416;79;21112;-78
2023/07/16 04:03:26;;;;;;;10.08;3.70;;;30.80;99.50;;;;;;1836420;77;21096;-77
2023/07/16 04:06:06;;;;;;;16.48;4.58;;;30.90;99.40;;;;;;1820443;77;21092;-75
2023/07/16 04:08:43;;;;;;;12.03;3.52;;;30.90;99.20;;;;;;1833428;77;21865;-77
2023/07/16 04:11:16;;;;;;;6.53;3.85;;;31.00;98.80;;;;;;1841783;77;21853;-78
2023/07/16 04:13:48;;;;;;;10.88;3.50;;;31.00;99.20;;;;;;1819331;77;21577;-75
2023/07/16 04:16:22;;;;;;;25.08;5.30;;;31.00;99.00;;;;;;1824862;77;21133;-77
2023/07/16 04:18:55;;;;;;;21.65;5.40;;;31.10;99.40;;;;;;1819322;78;21127;-78
2023/07/16 04:21:27;;;;;;;16.05;4.28;;;31.10;98.90;;;;;;1820243;79;21503;-79
2023/07/16 04:24:03;;;;;;;18.95;4.92;;;31.10;98.00;;;;;;1815121;79;21701;-78
2023/07/16 04:26:39;;;;;;;29.37;4.95;;;31.10;98.50;;;;;;1816721;77;21510;-76
2023/07/16 04:29:10;;;;;;;10.70;3.98;;;31.10;97.50;;;;;;1787605;78;21124;-77
2023/07/16 04:31:44;;;;;;;9.18;3.22;;;31.10;98.20;;;;;;1804674;79;21550;-77
2023/07/16 04:34:22;;;;;;;11.20;4.00;;;31.10;97.80;;;;;;1813197;78;21531;-80
2023/07/16 04:36:58;;;;;;;17.23;4.10;;;31.20;97.90;;;;;;1789764;79;21636;-79
2023/07/16 04:39:33;;;;;;;10.65;4.33;;;31.20;97.70;;;;;;1795710;79;21108;-79
2023/07/16 04:42:08;;;;;;;52.90;9.53;;;31.20;97.40;;;;;;1820488;78;21135;-76
2023/07/16 04:44:44;;;;;;;9.90;3.83;;;31.10;97.30;;;;;;1796367;79;21155;-78
2023/07/16 04:47:16;;;;;;;6.75;3.45;;;31.20;98.10;;;;;;1834059;77;21660;-79
2023/07/16 04:49:48;;;;;;;7.15;3.75;;;31.20;97.80;;;;;;1819492;77;21128;-78
2023/07/16 04:52:21;;;;;;;16.60;4.53;;;31.20;98.00;;;;;;1828331;77;21190;-77
2023/07/16 04:54:54;;;;;;;13.93;4.20;;;31.20;98.10;;;;;;1835023;77;21107;-76
2023/07/16 04:57:26;;;;;;;12.45;3.60;;;31.20;97.70;;;;;;1789260;79;21147;-76
2023/07/16 05:00:00;;;;;;;14.33;4.17;;;31.30;98.20;;;;;;1789105;79;21131;-76
2023/07/16 05:02:36;;;;;;;6.78;3.12;;;31.40;98.20;;;;;;1798343;79;21128;-77
2023/07/16 05:05:09;;;;;;;9.13;3.70;;;31.40;97.90;;;;;;1801820;78;21177;-75
2023/07/16 05:07:41;;;;;;;6.78;3.37;;;31.60;97.70;;;;;;1830739;77;21154;-77
2023/07/16 05:10:14;;;;;;;12.25;3.75;;;31.60;97.50;;;;;;1829415;77;21099;-77
2023/07/16 05:12:48;;;;;;;8.55;3.22;;;31.70;97.20;;;;;;1817748;79;21525;-76
2023/07/16 05:15:24;;;;;;;7.33;3.50;;;31.60;97.20;;;;;;1819058;78;21139;-75
2023/07/16 05:17:58;;;;;;;5.50;3.52;;;31.60;97.40;;;;;;1790232;79;21550;-76
2023/07/16 05:20:31;;;;;;;6.85;3.67;;;31.50;97.20;;;;;;1819088;79;21099;-76
2023/07/16 05:23:05;;;;;;;8.00;3.95;;;31.40;97.70;;;;;;1820183;77;21545;-75
2023/07/16 05:25:38;;;;;;;6.50;3.67;;;31.40;97.90;;;;;;1815000;77;21080;-78
2023/07/16 05:28:20;;;;;;;6.37;2.72;;;31.50;97.50;;;;;;1806144;79;21125;-76
2023/07/16 05:31:04;;;;;;;7.37;3.22;;;31.60;97.10;;;;;;1815362;77;21165;-77
2023/07/16 05:33:38;;;;;;;8.25;3.25;;;31.60;97.30;;;;;;1814132;77;21087;-76
2023/07/16 05:36:10;;;;;;;6.90;3.67;;;31.70;97.20;;;;;;1816292;77;21526;-77
2023/07/16 05:38:44;;;;;;;6.85;2.77;;;31.80;97.30;;;;;;1817167;78;21064;-75
2023/07/16 05:41:17;;;;;;;8.43;3.62;;;31.80;97.30;;;;;;1811495;78;21099;-76
2023/07/16 05:43:58;;;;;;;7.15;3.65;;;31.80;97.10;;;;;;1822751;77;21131;-77
2023/07/16 05:46:30;;;;;;;8.35;3.50;;;31.80;96.90;;;;;;1815564;77;21201;-74
2023/07/16 05:49:07;;;;;;;7.95;3.17;;;31.80;97.00;;;;;;1818408;78;21086;-74
2023/07/16 05:51:40;;;;;;;7.20;3.25;;;31.70;96.80;;;;;;1795435;78;21162;-76
2023/07/16 05:54:14;;;;;;;7.30;2.90;;;31.70;97.10;;;;;;1822140;77;21143;-75
2023/07/16 05:56:52;;;;;;;9.55;3.35;;;31.60;96.70;;;;;;1816048;77;21110;-77
2023/07/16 05:59:26;;;;;;;7.70;3.35;;;31.70;96.10;;;;;;1811204;78;21182;-77
2023/07/16 06:01:58;;;;;;;9.80;3.70;;;31.60;96.00;;;;;;1830809;77;21100;-76
2023/07/16 06:04:31;;;;;;;6.83;3.15;;;31.70;95.30;;;;;;1793429;78;21108;-76
2023/07/16 06:07:04;;;;;;;6.85;3.10;;;31.60;95.20;;;;;;1798732;78;21182;-77
2023/07/16 06:09:38;;;;;;;6.60;2.77;;;31.60;95.30;;;;;;1817879;78;21117;-76
2023/07/16 06:12:12;;;;;;;10.72;3.62;;;31.60;95.20;;;;;;1803776;79;21104;-78
2023/07/16 06:14:53;;;;;;;8.13;3.42;;;31.60;95.60;;;;;;1804448;79;21107;-76
2023/07/16 06:17:27;;;;;;;12.33;3.70;;;31.70;95.40;;;;;;1804900;78;21661;-76
2023/07/16 06:20:00;;;;;;;12.88;3.45;;;31.70;95.50;;;;;;1791058;79;21123;-77
2023/07/16 06:22:36;;;;;;;;;;;31.70;95.20;;;;;;1804266;79;21562;-77
2023/07/16 06:25:10;;;;;;;11.55;4.25;;;31.80;95.30;;;;;;1797148;78;20146;-77
2023/07/16 06:27:44;;;;;;;7.40;3.70;;;31.80;95.30;;;;;;1817286;78;21143;-77
2023/07/16 06:30:15;;;;;;;8.23;3.60;;;31.80;95.00;;;;;;1821393;77;21248;-74
2023/07/16 06:32:48;;;;;;;7.58;3.60;;;31.80;95.60;;;;;;1851614;77;21056;-77
2023/07/16 06:35:21;;;;;;;26.30;5.33;;;31.80;95.40;;;;;;1836777;77;21099;-77
2023/07/16 06:38:03;;;;;;;8.80;3.75;;;31.80;95.50;;;;;;1834929;78;21100;-76
2023/07/16 06:40:35;;;;;;;15.55;4.17;;;31.90;95.60;;;;;;1786239;79;21153;-78
2023/07/16 06:43:09;;;;;;;13.22;4.20;;;32.00;95.70;;;;;;1800074;78;21178;-77
2023/07/16 06:45:46;;;;;;;8.35;3.45;;;32.10;94.90;;;;;;1816888;79;21095;-76
2023/07/16 06:48:23;;;;;;;6.53;2.98;;;32.20;94.80;;;;;;1821415;78;21161;-78
2023/07/16 06:50:56;;;;;;;7.17;3.20;;;32.20;94.40;;;;;;1827033;78;21173;-77
2023/07/16 06:53:28;;;;;;;5.62;3.25;;;32.00;94.70;;;;;;1823915;78;21131;-76
2023/07/16 06:56:05;;;;;;;9.23;3.52;;;31.90;95.20;;;;;;1790575;78;21202;-77
2023/07/16 06:58:38;;;;;;;15.18;4.42;;;31.90;95.50;;;;;;1804825;78;21104;-78
2023/07/16 07:01:09;;;;;;;15.72;5.42;;;31.80;95.30;;;;;;1803618;79;21162;-75
2023/07/16 07:03:42;;;;;;;10.82;4.15;;;31.90;95.40;;;;;;1806836;77;21518;-76
2023/07/16 07:06:15;;;;;;;5.45;3.37;;;31.90;95.60;;;;;;1801527;78;21071;-75
2023/07/16 07:08:53;;;;;;;8.65;3.67;;;32.00;95.50;;;;;;1834879;77;21103;-75
2023/07/16 07:11:29;;;;;;;6.85;3.05;;;32.00;95.50;;;;;;1798751;78;21570;-76
2023/07/16 07:14:00;;;;;;;25.77;6.70;;;32.10;94.70;;;;;;1794619;78;21111;-76
2023/07/16 07:16:33;;;;;;;15.35;5.60;;;32.00;94.80;;;;;;1829851;77;21534;-76
2023/07/16 07:19:05;;;;;;;4.75;2.98;;;32.10;94.80;;;;;;1853690;77;21133;-78
2023/07/16 07:21:38;;;;;;;5.22;2.77;;;32.20;94.70;;;;;;1816770;78;21131;-77
2023/07/16 07:24:10;;;;;;;5.10;3.17;;;32.20;94.50;;;;;;1823970;78;21205;-76
2023/07/16 07:26:42;;;;;;;9.05;2.92;;;32.30;94.30;;;;;;1835191;77;21167;-75
2023/07/16 07:29:15;;;;;;;7.00;3.35;;;32.30;94.40;;;;;;1805982;77;21646;-77
2023/07/16 07:31:48;;;;;;;5.33;2.70;;;32.40;94.30;;;;;;1818278;78;21514;-77
2023/07/16 07:34:21;;;;;;;6.50;3.10;;;32.40;94.20;;;;;;1813670;78;21516;-75
2023/07/16 07:36:52;;;;;;;7.35;3.58;;;32.40;93.30;;;;;;1848280;77;21056;-73
2023/07/16 07:39:25;;;;;;;9.35;3.35;;;32.40;93.70;;;;;;1789332;78;21253;-75
2023/07/16 07:42:01;;;;;;;6.75;2.90;;;32.40;93.90;;;;;;1804524;78;21180;-75
2023/07/16 07:44:32;;;;;;;3.50;2.22;;;32.50;93.80;;;;;;1838392;77;21099;-73
2023/07/16 07:47:08;;;;;;;5.25;2.47;;;32.50;93.70;;;;;;1835152;77;21173;-73
2023/07/16 07:49:42;;;;;;;5.25;2.45;;;32.50;92.90;;;;;;1802176;79;21538;-74
2023/07/16 07:52:15;;;;;;;6.60;2.52;;;32.50;93.60;;;;;;1825193;77;21170;-73
2023/07/16 07:54:46;;;;;;;5.80;2.50;;;32.40;93.40;;;;;;1837109;77;21174;-73
2023/07/16 07:57:20;;;;;;;7.45;3.12;;;32.50;93.20;;;;;;1828100;78;21091;-72
2023/07/16 07:59:56;;;;;;;5.08;2.70;;;32.40;93.80;;;;;;1838405;77;21509;-75
2023/07/16 08:02:25;;;;;;;5.97;2.35;;;32.40;93.60;;;;;;1830955;77;21099;-74
2023/07/16 08:04:57;;;;;;;6.30;2.62;;;32.50;93.30;;;;;;1829227;78;21086;-75
2023/07/16 08:07:30;;;;;;;9.05;3.35;;;32.40;93.60;;;;;;1827084;77;21215;-73
2023/07/16 08:10:10;;;;;;;7.12;3.62;;;32.40;94.20;;;;;;1826924;77;21146;-74
2023/07/16 08:12:44;;;;;;;15.95;4.60;;;32.50;94.10;;;;;;1836381;77;21107;-74
2023/07/16 08:15:17;;;;;;;64.97;10.10;;;32.60;94.10;;;;;;1837340;77;21114;-73
2023/07/16 08:17:48;;;;;;;14.00;4.37;;;32.60;93.90;;;;;;1830947;77;21079;-76
2023/07/16 08:20:21;;;;;;;10.55;3.35;;;32.60;93.10;;;;;;1839449;77;21099;-74
2023/07/16 08:22:52;;;;;;;7.87;2.60;;;32.60;93.40;;;;;;1830797;77;21720;-74
2023/07/16 08:25:27;;;;;;;5.37;2.30;;;32.60;93.20;;;;;;1845689;77;21129;-74
2023/07/16 08:28:00;;;;;;;10.50;3.90;;;32.60;93.20;;;;;;1844801;77;21157;-75
2023/07/16 08:30:34;;;;;;;12.28;4.22;;;32.60;93.60;;;;;;1831518;77;21084;-75
2023/07/16 08:33:09;;;;;;;6.17;3.12;;;32.60;93.70;;;;;;1842401;77;21118;-74
2023/07/16 08:35:45;;;;;;;6.28;2.92;;;32.60;93.50;;;;;;1837155;77;21180;-75
2023/07/16 08:38:18;;;;;;;7.33;3.12;;;32.60;93.20;;;;;;1835099;77;21142;-75
2023/07/16 08:40:52;;;;;;;3.30;2.33;;;32.60;93.80;;;;;;1838731;77;21377;-78
2023/07/16 08:43:26;;;;;;;5.00;2.52;;;32.60;93.20;;;;;;1848100;77;21189;-77
2023/07/16 08:45:58;;;;;;;8.25;2.95;;;32.60;93.60;;;;;;1828979;77;21084;-75
2023/07/16 08:48:32;;;;;;;8.03;3.08;;;32.50;93.50;;;;;;1840582;77;21709;-75
2023/07/16 08:51:05;;;;;;;7.10;3.40;;;32.40;93.70;;;;;;1838354;77;21228;-77
2023/07/16 08:53:37;;;;;;;5.12;3.40;;;32.40;93.80;;;;;;1849349;77;21094;-75
2023/07/16 08:56:10;;;;;;;7.42;3.67;;;32.40;94.00;;;;;;1832859;77;21162;-76
2023/07/16 08:58:45;;;;;;;23.47;6.05;;;32.40;94.20;;;;;;1843960;77;21079;-75
2023/07/16 09:01:18;;;;;;;27.87;5.63;;;32.40;94.10;;;;;;1830428;77;21274;-77
2023/07/16 09:03:53;;;;;;;18.75;4.80;;;32.40;93.90;;;;;;1826402;77;21764;-76
2023/07/16 09:06:26;;;;;;;6.75;3.12;;;32.50;94.20;;;;;;1829646;77;21196;-76
2023/07/16 09:08:59;;;;;;;5.78;3.05;;;32.40;93.70;;;;;;1830438;77;21110;-76
2023/07/16 09:11:32;;;;;;;8.38;3.22;;;32.40;93.90;;;;;;1812741;78;21097;-76
2023/07/16 09:14:04;;;;;;;13.32;3.50;;;32.40;93.80;;;;;;1833684;77;21091;-75
2023/07/16 09:16:38;;;;;;;6.87;3.08;;;32.40;93.90;;;;;;1833166;77;21181;-75
2023/07/16 09:19:18;;;;;;;8.65;3.37;;;32.40;93.80;;;;;;1795051;78;21208;-77
2023/07/16 09:21:52;;;;;;;8.05;3.27;;;32.40;94.20;;;;;;1835307;77;21103;-76
2023/07/16 09:24:26;;;;;;;26.05;5.37;;;32.50;93.90;;;;;;1842700;77;21111;-76
2023/07/16 09:27:01;;;;;;;36.75;9.43;;;32.40;93.50;;;;;;1843574;77;21181;-75
2023/07/16 09:29:34;;;;;;;69.92;11.33;;;32.40;93.90;;;;;;1845776;77;21593;-77
2023/07/16 09:32:08;;;;;;;11.93;3.75;;;32.40;94.10;;;;;;1838582;77;21228;-75
2023/07/16 09:34:41;;;;;;;36.98;6.80;;;32.30;94.30;;;;;;1826589;77;21088;-75
2023/07/16 09:37:12;;;;;;;18.10;4.60;;;32.30;94.50;;;;;;1834398;77;21092;-78
2023/07/16 09:39:54;;;;;;;17.57;4.20;;;32.30;94.20;;;;;;1787314;78;21597;-77
2023/07/16 09:42:27;;;;;;;7.40;2.67;;;32.30;94.30;;;;;;1799146;78;21140;-77
2023/07/16 09:45:01;;;;;;;10.25;3.02;;;32.30;94.20;;;;;;1789547;79;21122;-76
2023/07/16 09:47:34;;;;;;;8.15;3.52;;;32.30;94.10;;;;;;1818595;78;21072;-75
2023/07/16 09:50:08;;;;;;;12.37;4.00;;;32.30;94.20;;;;;;1817674;78;21151;-77
2023/07/16 09:52:42;;;;;;;8.53;3.90;;;32.30;94.50;;;;;;1804907;79;21092;-76
2023/07/16 09:55:17;;;;;;;8.65;3.10;;;32.30;94.50;;;;;;1831009;77;21162;-75
2023/07/16 09:57:52;;;;;;;6.87;3.50;;;32.30;94.40;;;;;;1835267;77;21095;-77
2023/07/16 10:00:26;;;;;;;7.87;3.20;;;32.30;94.20;;;;;;1807714;78;21080;-75
2023/07/16 10:03:00;;;;;;;7.45;4.03;;;32.30;94.20;;;;;;1849497;77;21530;-76
2023/07/16 10:05:37;;;;;;;13.60;4.10;;;32.30;94.20;;;;;;1808440;78;21667;-75
2023/07/16 10:08:11;;;;;;;8.85;3.30;;;32.30;94.20;;;;;;1843491;77;21092;-77
2023/07/16 10:10:52;;;;;;;;;;;32.30;94.10;;;;;;1805247;78;21205;-75
2023/07/16 10:13:29;;;;;;;8.95;4.92;;;32.30;94.10;;;;;;1821514;77;20169;-76
2023/07/16 10:16:02;;;;;;;6.05;3.15;;;32.30;94.20;;;;;;1821143;77;21091;-75
2023/07/16 10:18:35;;;;;;;7.40;3.42;;;32.30;94.30;;;;;;1812552;78;21088;-76
2023/07/16 10:21:10;;;;;;;9.38;4.03;;;32.30;94.10;;;;;;1812696;78;21518;-75
2023/07/16 10:23:44;;;;;;;7.60;3.98;;;32.30;94.30;;;;;;1841905;77;21155;-77
2023/07/16 10:26:17;;;;;;;5.45;2.83;;;32.20;94.30;;;;;;1831375;77;21139;-77
2023/07/16 10:28:51;;;;;;;6.97;3.20;;;32.20;94.20;;;;;;1841740;77;21150;-75
2023/07/16 10:31:27;;;;;;;6.85;3.65;;;32.20;94.30;;;;;;1836898;77;21130;-74
2023/07/16 10:34:08;;;;;;;7.30;3.65;;;32.20;94.20;;;;;;1827750;77;21215;-75
2023/07/16 10:36:41;;;;;;;6.28;3.50;;;32.20;94.40;;;;;;1829031;77;21158;-75
2023/07/16 10:39:18;;;;;;;7.62;3.60;;;32.20;94.50;;;;;;1842990;77;21502;-74
2023/07/16 10:41:49;;;;;;;9.60;3.15;;;32.10;94.40;;;;;;1840696;77;21134;-77
2023/07/16 10:44:25;;;;;;;7.97;3.65;;;32.10;94.50;;;;;;1834841;77;21082;-76
2023/07/16 10:46:57;;;;;;;8.63;3.15;;;32.10;94.50;;;;;;1827259;77;21127;-76
2023/07/16 10:49:30;;;;;;;6.03;2.72;;;32.00;94.40;;;;;;1835419;77;21526;-76
2023/07/16 10:52:05;;;;;;;4.00;2.75;;;32.10;94.40;;;;;;1830718;77;21648;-75
2023/07/16 10:54:37;;;;;;;7.40;3.87;;;32.00;94.60;;;;;;1826296;77;21153;-76
2023/07/16 10:57:10;;;;;;;6.97;3.20;;;32.00;94.60;;;;;;1827779;77;21170;-76
2023/07/16 10:59:43;;;;;;;8.00;3.30;;;31.90;94.60;;;;;;1828196;77;21138;-76
2023/07/16 11:02:20;;;;;;;4.28;2.80;;;31.90;94.70;;;;;;1829172;77;21199;-76
2023/07/16 11:04:54;;;;;;;7.83;3.70;;;31.90;94.90;;;;;;1806872;78;21215;-77
2023/07/16 11:07:26;;;;;;;4.87;3.20;;;31.80;95.00;;;;;;1837237;77;21609;-77
2023/07/16 11:09:59;;;;;;;9.25;3.30;;;31.80;95.10;;;;;;1830322;77;21522;-76
2023/07/16 11:12:32;;;;;;;7.97;4.08;;;31.80;95.20;;;;;;1812078;78;21178;-75
2023/07/16 11:15:04;;;;;;;9.80;4.00;;;31.80;95.30;;;;;;1800958;78;21166;-75
2023/07/16 11:17:41;;;;;;;14.63;3.77;;;31.70;95.70;;;;;;1838289;77;21134;-75
2023/07/16 11:20:14;;;;;;;7.20;3.37;;;31.70;95.90;;;;;;1826408;77;21692;-74
2023/07/16 11:22:48;;;;;;;9.70;4.47;;;31.70;96.10;;;;;;1831734;77;21079;-76
2023/07/16 11:25:25;;;;;;;6.83;3.87;;;31.70;96.20;;;;;;1798869;78;21091;-76
2023/07/16 11:28:03;;;;;;;8.93;3.72;;;31.60;96.20;;;;;;1829822;77;21166;-76
2023/07/16 11:30:37;;;;;;;8.08;3.92;;;31.60;96.30;;;;;;1798580;78;21213;-76
2023/07/16 11:33:13;;;;;;;8.35;3.60;;;31.50;96.30;;;;;;1816006;78;21079;-74
2023/07/16 11:35:47;;;;;;;8.70;3.70;;;31.50;96.50;;;;;;1823889;78;21700;-74
2023/07/16 11:38:23;;;;;;;6.10;3.37;;;31.40;96.60;;;;;;1805682;79;21091;-75
2023/07/16 11:41:01;;;;;;;6.47;4.17;;;31.40;96.70;;;;;;1798185;79;21756;-74
2023/07/16 11:43:37;;;;;;;7.85;4.10;;;31.40;96.80;;;;;;1792328;79;21138;-75
2023/07/16 11:46:16;;;;;;;8.43;4.12;;;31.30;96.90;;;;;;1813476;78;21225;-76
2023/07/16 11:48:53;;;;;;;6.85;4.03;;;31.30;96.90;;;;;;1821694;78;21225;-75
2023/07/16 11:51:27;;;;;;;6.40;3.60;;;31.30;96.90;;;;;;1819471;78;21669;-75
2023/07/16 11:53:59;;;;;;;8.28;3.67;;;31.20;96.90;;;;;;1793600;79;21143;-76
2023/07/16 11:56:32;;;;;;;6.50;3.70;;;31.20;96.80;;;;;;1799114;78;21108;-76
2023/07/16 11:59:08;;;;;;;8.40;4.15;;;31.20;96.80;;;;;;1805380;78;21120;-76
2023/07/16 12:01:42;;;;;;;7.85;4.00;;;31.20;96.80;;;;;;1797830;78;21072;-76
2023/07/16 12:04:14;;;;;;;9.35;4.03;;;31.10;96.80;;;;;;1815638;78;21115;-75
2023/07/16 12:06:47;;;;;;;10.18;4.50;;;31.10;96.80;;;;;;1790828;79;21151;-77
2023/07/16 12:09:20;;;;;;;8.85;4.30;;;31.10;96.90;;;;;;1821830;77;21179;-77
2023/07/16 12:11:51;;;;;;;10.50;4.65;;;31.10;96.90;;;;;;1830517;77;21104;-79
2023/07/16 12:14:25;;;;;;;9.68;5.00;;;31.10;96.90;;;;;;1817390;77;21198;-78
2023/07/16 12:16:59;;;;;;;9.48;4.25;;;31.00;96.80;;;;;;1833749;77;21147;-78
2023/07/16 12:19:32;;;;;;;7.15;4.35;;;31.00;96.80;;;;;;1824296;77;21122;-79
2023/07/16 12:22:08;;;;;;;9.58;4.28;;;31.00;96.80;;;;;;1807376;78;21129;-79
2023/07/16 12:24:40;;;;;;;8.93;4.70;;;31.00;96.70;;;;;;1795159;79;21119;-79
2023/07/16 12:27:16;;;;;;;8.15;4.90;;;31.00;96.80;;;;;;1805708;78;21622;-76
2023/07/16 12:29:52;;;;;;;11.97;5.20;;;31.00;96.80;;;;;;1817893;77;21185;-78
2023/07/16 12:32:26;;;;;;;10.98;4.78;;;30.90;96.80;;;;;;1793576;78;21091;-79
2023/07/16 12:35:03;;;;;;;11.00;5.05;;;30.90;96.70;;;;;;1810606;77;21202;-76
2023/07/16 12:37:35;;;;;;;11.90;4.90;;;30.90;96.70;;;;;;1795227;78;21107;-79
2023/07/16 12:40:09;;;;;;;12.15;5.65;;;30.90;96.60;;;;;;1802833;78;21745;-79
2023/07/16 12:42:41;;;;;;;11.83;4.62;;;30.90;96.60;;;;;;1804575;78;21142;-79
2023/07/16 12:45:14;;;;;;;10.48;5.20;;;30.90;96.70;;;;;;1806178;78;21162;-79
2023/07/16 12:47:49;;;;;;;10.82;5.65;;;30.90;96.80;;;;;;1805727;78;21127;-74
2023/07/16 12:50:27;;;;;;;11.63;5.20;;;30.90;96.90;;;;;;1825931;77;21166;-75
2023/07/16 12:53:10;;;;;;;9.38;4.85;;;30.80;96.80;;;;;;1840955;77;21588;-75
2023/07/16 12:55:44;;;;;;;10.50;5.00;;;30.80;96.90;;;;;;1840478;77;21105;-78
2023/07/16 12:58:20;;;;;;;12.30;4.20;;;30.80;97.00;;;;;;1837163;77;21106;-78
2023/07/16 13:00:53;;;;;;;14.65;2.90;;;30.80;97.10;;;;;;1828326;77;21072;-81
2023/07/16 13:03:28;;;;;;;6.30;2.45;;;30.70;97.10;;;;;;1828718;77;21172;-79
2023/07/16 13:06:08;;;;;;;6.70;2.12;;;30.50;97.30;;;;;;1833606;77;21140;-78
2023/07/16 13:08:40;;;;;;;5.85;1.92;;;30.10;97.50;;;;;;1833000;77;21107;-78
2023/07/16 13:11:14;;;;;;;3.75;1.55;;;29.80;98.10;;;;;;1797952;78;21154;-73
2023/07/16 13:13:47;;;;;;;3.77;1.50;;;29.40;98.60;;;;;;1839016;77;21049;-74
2023/07/16 13:16:19;;;;;;;3.45;1.07;;;29.10;99.00;;;;;;1830765;77;21626;-73
2023/07/16 13:18:52;;;;;;;3.08;1.42;;;28.80;99.80;;;;;;1833432;77;21611;-73